sensor_id;sensor_type;location;lat;lon;timestamp;P1;durP1;ratioP1;P2;durP2;ratioP2
38797;SDS011;24546;52.240;16.826;2022-12-29T00:01:15;13.38;;;7.70;;
38797;SDS011;24546;52.240;16.826;2022-12-29T00:06:16;10.77;;;6.90;;
38797;SDS011;24546;52.240;16.826;2022-12-29T00:11:18;11.38;;;6.63;;
38797;SDS011;24546;52.240;16.826;2022-12-29T00:21:25;11.68;;;7.22;;
38797;SDS011;24546;52.240;16.826;2022-12-29T00:26:46;9.23;;;5.53;;
38797;SDS011;24546;52.240;16.826;2022-12-29T00:32:26;10.25;;;6.35;;
38797;SDS011;24546;52.240;16.826;2022-12-29T00:37:46;9.73;;;6.43;;
38797;SDS011;24546;52.240;16.826;2022-12-29T00:43:08;8.88;;;6.38;;
38797;SDS011;24546;52.240;16.826;2022-12-29T00:48:27;10.52;;;6.57;;
38797;SDS011;24546;52.240;16.826;2022-12-29T00:53:47;10.55;;;6.13;;
38797;SDS011;24546;52.240;16.826;2022-12-29T00:58:48;13.68;;;7.32;;
38797;SDS011;24546;52.240;16.826;2022-12-29T01:03:49;11.30;;;5.85;;
38797;SDS011;24546;52.240;16.826;2022-12-29T01:08:50;7.93;;;5.57;;
38797;SDS011;24546;52.240;16.826;2022-12-29T01:14:11;9.52;;;6.15;;
38797;SDS011;24546;52.240;16.826;2022-12-29T01:19:12;10.35;;;5.88;;
38797;SDS011;24546;52.240;16.826;2022-12-29T01:24:15;9.35;;;6.45;;
38797;SDS011;24546;52.240;16.826;2022-12-29T01:29:17;8.02;;;5.80;;
38797;SDS011;24546;52.240;16.826;2022-12-29T01:34:19;7.75;;;5.10;;
38797;SDS011;24546;52.240;16.826;2022-12-29T01:39:21;7.45;;;4.55;;
38797;SDS011;24546;52.240;16.826;2022-12-29T01:49:45;7.57;;;5.03;;
38797;SDS011;24546;52.240;16.826;2022-12-29T01:54:47;10.10;;;4.82;;
38797;SDS011;24546;52.240;16.826;2022-12-29T01:59:57;6.32;;;4.10;;
38797;SDS011;24546;52.240;16.826;2022-12-29T02:10:46;7.78;;;5.43;;
38797;SDS011;24546;52.240;16.826;2022-12-29T02:15:51;8.18;;;5.20;;
38797;SDS011;24546;52.240;16.826;2022-12-29T02:26:39;7.10;;;4.68;;
38797;SDS011;24546;52.240;16.826;2022-12-29T02:37:35;8.68;;;5.15;;
38797;SDS011;24546;52.240;16.826;2022-12-29T02:48:04;7.68;;;4.80;;
38797;SDS011;24546;52.240;16.826;2022-12-29T02:53:20;6.72;;;4.15;;
38797;SDS011;24546;52.240;16.826;2022-12-29T02:58:43;7.18;;;3.75;;
38797;SDS011;24546;52.240;16.826;2022-12-29T03:14:32;8.75;;;4.20;;
38797;SDS011;24546;52.240;16.826;2022-12-29T03:19:59;7.80;;;4.53;;
38797;SDS011;24546;52.240;16.826;2022-12-29T03:25:12;6.18;;;3.70;;
38797;SDS011;24546;52.240;16.826;2022-12-29T03:30:19;7.60;;;4.45;;
38797;SDS011;24546;52.240;16.826;2022-12-29T03:35:25;7.30;;;4.10;;
38797;SDS011;24546;52.240;16.826;2022-12-29T03:40:31;6.03;;;4.00;;
38797;SDS011;24546;52.240;16.826;2022-12-29T03:45:34;8.77;;;4.72;;
38797;SDS011;24546;52.240;16.826;2022-12-29T03:50:35;6.13;;;3.97;;
38797;SDS011;24546;52.240;16.826;2022-12-29T03:55:37;5.25;;;4.15;;
38797;SDS011;24546;52.240;16.826;2022-12-29T04:00:38;7.53;;;4.75;;
38797;SDS011;24546;52.240;16.826;2022-12-29T04:05:40;6.82;;;4.13;;
38797;SDS011;24546;52.240;16.826;2022-12-29T04:10:41;8.80;;;4.88;;
38797;SDS011;24546;52.240;16.826;2022-12-29T04:15:43;5.82;;;4.03;;
38797;SDS011;24546;52.240;16.826;2022-12-29T04:20:45;6.82;;;4.13;;
38797;SDS011;24546;52.240;16.826;2022-12-29T04:26:04;5.55;;;3.35;;
38797;SDS011;24546;52.240;16.826;2022-12-29T04:31:15;6.25;;;3.63;;
38797;SDS011;24546;52.240;16.826;2022-12-29T04:36:19;5.18;;;3.50;;
38797;SDS011;24546;52.240;16.826;2022-12-29T04:41:20;6.68;;;4.00;;
38797;SDS011;24546;52.240;16.826;2022-12-29T04:46:22;5.88;;;4.03;;
38797;SDS011;24546;52.240;16.826;2022-12-29T04:51:35;6.32;;;3.67;;
38797;SDS011;24546;52.240;16.826;2022-12-29T04:56:36;7.43;;;4.28;;
38797;SDS011;24546;52.240;16.826;2022-12-29T05:01:38;6.40;;;3.38;;
38797;SDS011;24546;52.240;16.826;2022-12-29T05:06:40;6.75;;;3.03;;
38797;SDS011;24546;52.240;16.826;2022-12-29T05:11:41;5.53;;;3.10;;
38797;SDS011;24546;52.240;16.826;2022-12-29T05:16:43;3.90;;;2.80;;
38797;SDS011;24546;52.240;16.826;2022-12-29T05:21:44;5.72;;;3.28;;
38797;SDS011;24546;52.240;16.826;2022-12-29T05:26:46;4.28;;;2.58;;
38797;SDS011;24546;52.240;16.826;2022-12-29T05:32:16;4.45;;;2.92;;
38797;SDS011;24546;52.240;16.826;2022-12-29T05:37:18;4.47;;;2.90;;
38797;SDS011;24546;52.240;16.826;2022-12-29T05:42:19;4.68;;;3.25;;
38797;SDS011;24546;52.240;16.826;2022-12-29T05:47:33;6.60;;;2.92;;
38797;SDS011;24546;52.240;16.826;2022-12-29T05:52:57;3.88;;;2.92;;
38797;SDS011;24546;52.240;16.826;2022-12-29T05:57:59;5.53;;;2.70;;
38797;SDS011;24546;52.240;16.826;2022-12-29T06:03:00;6.50;;;3.20;;
38797;SDS011;24546;52.240;16.826;2022-12-29T06:08:01;3.85;;;2.53;;
38797;SDS011;24546;52.240;16.826;2022-12-29T06:13:04;3.53;;;2.40;;
38797;SDS011;24546;52.240;16.826;2022-12-29T06:18:15;3.65;;;2.47;;
38797;SDS011;24546;52.240;16.826;2022-12-29T06:23:18;5.30;;;2.33;;
38797;SDS011;24546;52.240;16.826;2022-12-29T06:28:19;4.50;;;2.63;;
38797;SDS011;24546;52.240;16.826;2022-12-29T06:33:20;6.72;;;3.08;;
38797;SDS011;24546;52.240;16.826;2022-12-29T06:38:21;4.55;;;2.67;;
38797;SDS011;24546;52.240;16.826;2022-12-29T06:43:24;4.15;;;2.80;;
38797;SDS011;24546;52.240;16.826;2022-12-29T06:48:44;5.55;;;2.90;;
38797;SDS011;24546;52.240;16.826;2022-12-29T06:53:44;5.82;;;3.42;;
38797;SDS011;24546;52.240;16.826;2022-12-29T06:58:46;6.05;;;3.70;;
38797;SDS011;24546;52.240;16.826;2022-12-29T07:03:47;7.00;;;3.58;;
38797;SDS011;24546;52.240;16.826;2022-12-29T07:08:48;5.43;;;3.38;;
38797;SDS011;24546;52.240;16.826;2022-12-29T07:13:49;8.40;;;4.43;;
38797;SDS011;24546;52.240;16.826;2022-12-29T07:18:51;5.97;;;3.40;;
38797;SDS011;24546;52.240;16.826;2022-12-29T07:23:53;7.03;;;4.45;;
38797;SDS011;24546;52.240;16.826;2022-12-29T07:28:54;5.57;;;3.33;;
38797;SDS011;24546;52.240;16.826;2022-12-29T07:33:55;5.72;;;4.22;;
38797;SDS011;24546;52.240;16.826;2022-12-29T07:38:56;7.22;;;3.70;;
38797;SDS011;24546;52.240;16.826;2022-12-29T07:43:57;5.32;;;3.50;;
38797;SDS011;24546;52.240;16.826;2022-12-29T07:49:18;7.28;;;4.00;;
38797;SDS011;24546;52.240;16.826;2022-12-29T07:54:19;6.22;;;3.75;;
38797;SDS011;24546;52.240;16.826;2022-12-29T07:59:22;7.15;;;4.78;;
38797;SDS011;24546;52.240;16.826;2022-12-29T08:04:23;6.63;;;3.75;;
38797;SDS011;24546;52.240;16.826;2022-12-29T08:09:24;6.03;;;4.00;;
38797;SDS011;24546;52.240;16.826;2022-12-29T08:14:26;8.65;;;4.28;;
38797;SDS011;24546;52.240;16.826;2022-12-29T08:19:27;9.43;;;4.45;;
38797;SDS011;24546;52.240;16.826;2022-12-29T08:24:28;6.68;;;4.30;;
38797;SDS011;24546;52.240;16.826;2022-12-29T08:29:29;7.45;;;4.20;;
38797;SDS011;24546;52.240;16.826;2022-12-29T08:34:31;5.15;;;3.80;;
38797;SDS011;24546;52.240;16.826;2022-12-29T08:39:32;6.85;;;4.00;;
38797;SDS011;24546;52.240;16.826;2022-12-29T08:44:34;6.68;;;3.53;;
38797;SDS011;24546;52.240;16.826;2022-12-29T08:49:35;7.88;;;4.20;;
38797;SDS011;24546;52.240;16.826;2022-12-29T08:54:36;7.72;;;5.10;;
38797;SDS011;24546;52.240;16.826;2022-12-29T08:59:37;24.38;;;12.38;;
38797;SDS011;24546;52.240;16.826;2022-12-29T09:04:38;12.27;;;5.88;;
38797;SDS011;24546;52.240;16.826;2022-12-29T09:09:39;13.25;;;8.80;;
38797;SDS011;24546;52.240;16.826;2022-12-29T09:14:40;7.47;;;4.90;;
38797;SDS011;24546;52.240;16.826;2022-12-29T09:19:42;10.15;;;4.70;;
38797;SDS011;24546;52.240;16.826;2022-12-29T09:24:43;7.75;;;5.28;;
38797;SDS011;24546;52.240;16.826;2022-12-29T09:29:44;6.95;;;4.82;;
38797;SDS011;24546;52.240;16.826;2022-12-29T09:34:46;10.68;;;6.03;;
38797;SDS011;24546;52.240;16.826;2022-12-29T09:39:47;7.97;;;5.40;;
38797;SDS011;24546;52.240;16.826;2022-12-29T09:55:35;14.82;;;8.95;;
38797;SDS011;24546;52.240;16.826;2022-12-29T10:06:07;7.15;;;4.38;;
38797;SDS011;24546;52.240;16.826;2022-12-29T10:28:20;9.20;;;4.40;;
38797;SDS011;24546;52.240;16.826;2022-12-29T10:33:34;9.05;;;5.15;;
38797;SDS011;24546;52.240;16.826;2022-12-29T10:38:44;5.73;;;4.00;;
38797;SDS011;24546;52.240;16.826;2022-12-29T10:43:53;17.40;;;10.85;;
38797;SDS011;24546;52.240;16.826;2022-12-29T10:48:57;7.80;;;4.55;;
38797;SDS011;24546;52.240;16.826;2022-12-29T10:53:59;9.18;;;6.25;;
38797;SDS011;24546;52.240;16.826;2022-12-29T11:04:26;10.38;;;7.53;;
38797;SDS011;24546;52.240;16.826;2022-12-29T11:09:52;32.80;;;17.60;;
38797;SDS011;24546;52.240;16.826;2022-12-29T11:15:26;5.88;;;3.63;;
38797;SDS011;24546;52.240;16.826;2022-12-29T11:25:35;11.43;;;6.15;;
38797;SDS011;24546;52.240;16.826;2022-12-29T11:30:36;9.68;;;5.90;;
38797;SDS011;24546;52.240;16.826;2022-12-29T11:35:41;8.02;;;4.40;;
38797;SDS011;24546;52.240;16.826;2022-12-29T11:40:43;6.38;;;3.95;;
38797;SDS011;24546;52.240;16.826;2022-12-29T11:45:45;9.15;;;4.80;;
38797;SDS011;24546;52.240;16.826;2022-12-29T11:50:54;6.63;;;3.90;;
38797;SDS011;24546;52.240;16.826;2022-12-29T11:56:10;15.00;;;8.00;;
38797;SDS011;24546;52.240;16.826;2022-12-29T12:01:33;8.25;;;4.85;;
38797;SDS011;24546;52.240;16.826;2022-12-29T12:06:44;6.75;;;3.92;;
38797;SDS011;24546;52.240;16.826;2022-12-29T12:11:51;25.67;;;14.93;;
38797;SDS011;24546;52.240;16.826;2022-12-29T12:23:01;8.90;;;5.10;;
38797;SDS011;24546;52.240;16.826;2022-12-29T12:27:39;10.52;;;5.25;;
38797;SDS011;24546;52.240;16.826;2022-12-29T12:32:58;6.10;;;4.05;;
38797;SDS011;24546;52.240;16.826;2022-12-29T13:14:37;5.25;;;2.83;;
38797;SDS011;24546;52.240;16.826;2022-12-29T13:19:53;7.38;;;3.67;;
38797;SDS011;24546;52.240;16.826;2022-12-29T13:41:25;7.18;;;3.65;;
38797;SDS011;24546;52.240;16.826;2022-12-29T13:46:33;5.10;;;3.30;;
38797;SDS011;24546;52.240;16.826;2022-12-29T13:51:46;6.10;;;3.20;;
38797;SDS011;24546;52.240;16.826;2022-12-29T13:57:05;5.72;;;3.17;;
38797;SDS011;24546;52.240;16.826;2022-12-29T14:02:21;6.10;;;3.60;;
38797;SDS011;24546;52.240;16.826;2022-12-29T14:07:36;6.57;;;3.20;;
38797;SDS011;24546;52.240;16.826;2022-12-29T14:12:42;7.28;;;3.95;;
38797;SDS011;24546;52.240;16.826;2022-12-29T14:17:45;10.35;;;5.65;;
38797;SDS011;24546;52.240;16.826;2022-12-29T14:28:42;6.60;;;3.80;;
38797;SDS011;24546;52.240;16.826;2022-12-29T14:44:32;9.40;;;4.10;;
38797;SDS011;24546;52.240;16.826;2022-12-29T14:49:39;7.18;;;3.85;;
38797;SDS011;24546;52.240;16.826;2022-12-29T14:54:45;10.70;;;5.03;;
38797;SDS011;24546;52.240;16.826;2022-12-29T14:59:52;8.32;;;4.20;;
38797;SDS011;24546;52.240;16.826;2022-12-29T15:04:58;8.15;;;4.78;;
38797;SDS011;24546;52.240;16.826;2022-12-29T15:10:08;8.98;;;4.95;;
38797;SDS011;24546;52.240;16.826;2022-12-29T15:20:30;11.35;;;6.05;;
38797;SDS011;24546;52.240;16.826;2022-12-29T15:25:32;9.18;;;5.20;;
38797;SDS011;24546;52.240;16.826;2022-12-29T15:30:33;8.88;;;5.03;;
38797;SDS011;24546;52.240;16.826;2022-12-29T15:35:35;19.75;;;10.35;;
38797;SDS011;24546;52.240;16.826;2022-12-29T15:40:36;13.27;;;5.47;;
38797;SDS011;24546;52.240;16.826;2022-12-29T15:45:37;8.23;;;4.78;;
38797;SDS011;24546;52.240;16.826;2022-12-29T15:50:39;7.78;;;4.30;;
38797;SDS011;24546;52.240;16.826;2022-12-29T15:55:43;8.98;;;4.68;;
38797;SDS011;24546;52.240;16.826;2022-12-29T16:00:48;7.55;;;3.90;;
38797;SDS011;24546;52.240;16.826;2022-12-29T16:05:57;10.82;;;5.65;;
38797;SDS011;24546;52.240;16.826;2022-12-29T16:16:31;11.43;;;6.50;;
38797;SDS011;24546;52.240;16.826;2022-12-29T16:21:45;12.55;;;7.55;;
38797;SDS011;24546;52.240;16.826;2022-12-29T16:26:51;11.43;;;6.65;;
38797;SDS011;24546;52.240;16.826;2022-12-29T16:31:59;28.88;;;14.75;;
38797;SDS011;24546;52.240;16.826;2022-12-29T16:47:43;10.77;;;5.70;;
38797;SDS011;24546;52.240;16.826;2022-12-29T16:52:49;10.67;;;5.63;;
38797;SDS011;24546;52.240;16.826;2022-12-29T16:57:50;9.10;;;5.15;;
38797;SDS011;24546;52.240;16.826;2022-12-29T17:02:57;12.05;;;5.88;;
38797;SDS011;24546;52.240;16.826;2022-12-29T17:07:59;11.85;;;6.82;;
38797;SDS011;24546;52.240;16.826;2022-12-29T17:13:01;18.23;;;10.90;;
38797;SDS011;24546;52.240;16.826;2022-12-29T17:18:02;19.08;;;8.90;;
38797;SDS011;24546;52.240;16.826;2022-12-29T17:23:07;17.85;;;10.88;;
38797;SDS011;24546;52.240;16.826;2022-12-29T17:28:21;16.63;;;9.48;;
38797;SDS011;24546;52.240;16.826;2022-12-29T17:33:31;13.53;;;7.90;;
38797;SDS011;24546;52.240;16.826;2022-12-29T17:38:36;12.90;;;7.75;;
38797;SDS011;24546;52.240;16.826;2022-12-29T17:43:37;14.13;;;7.85;;
38797;SDS011;24546;52.240;16.826;2022-12-29T17:48:38;16.95;;;10.32;;
38797;SDS011;24546;52.240;16.826;2022-12-29T17:53:39;18.65;;;10.48;;
38797;SDS011;24546;52.240;16.826;2022-12-29T17:58:40;23.88;;;16.25;;
38797;SDS011;24546;52.240;16.826;2022-12-29T18:03:42;23.77;;;14.85;;
38797;SDS011;24546;52.240;16.826;2022-12-29T18:08:43;22.95;;;14.50;;
38797;SDS011;24546;52.240;16.826;2022-12-29T18:13:44;18.65;;;10.68;;
38797;SDS011;24546;52.240;16.826;2022-12-29T18:18:45;16.00;;;11.07;;
38797;SDS011;24546;52.240;16.826;2022-12-29T18:23:47;16.88;;;9.60;;
38797;SDS011;24546;52.240;16.826;2022-12-29T18:28:49;10.57;;;6.72;;
38797;SDS011;24546;52.240;16.826;2022-12-29T18:33:51;20.90;;;11.30;;
38797;SDS011;24546;52.240;16.826;2022-12-29T18:38:56;20.20;;;14.15;;
38797;SDS011;24546;52.240;16.826;2022-12-29T18:43:57;17.35;;;10.20;;
38797;SDS011;24546;52.240;16.826;2022-12-29T18:49:02;13.52;;;7.43;;
38797;SDS011;24546;52.240;16.826;2022-12-29T18:54:31;15.95;;;10.05;;
38797;SDS011;24546;52.240;16.826;2022-12-29T18:59:32;13.57;;;8.82;;
38797;SDS011;24546;52.240;16.826;2022-12-29T19:04:33;11.27;;;7.50;;
38797;SDS011;24546;52.240;16.826;2022-12-29T19:09:37;11.40;;;6.90;;
38797;SDS011;24546;52.240;16.826;2022-12-29T19:14:38;12.45;;;7.93;;
38797;SDS011;24546;52.240;16.826;2022-12-29T19:19:40;11.48;;;7.07;;
38797;SDS011;24546;52.240;16.826;2022-12-29T19:24:44;11.13;;;7.05;;
38797;SDS011;24546;52.240;16.826;2022-12-29T19:29:49;11.85;;;7.45;;
38797;SDS011;24546;52.240;16.826;2022-12-29T19:34:50;13.77;;;7.50;;
38797;SDS011;24546;52.240;16.826;2022-12-29T19:39:51;17.13;;;10.27;;
38797;SDS011;24546;52.240;16.826;2022-12-29T19:44:52;12.70;;;7.55;;
38797;SDS011;24546;52.240;16.826;2022-12-29T19:49:56;12.95;;;7.50;;
38797;SDS011;24546;52.240;16.826;2022-12-29T19:54:58;10.30;;;6.65;;
38797;SDS011;24546;52.240;16.826;2022-12-29T20:00:03;13.52;;;8.90;;
38797;SDS011;24546;52.240;16.826;2022-12-29T20:05:12;10.90;;;6.38;;
38797;SDS011;24546;52.240;16.826;2022-12-29T20:10:13;15.40;;;9.50;;
38797;SDS011;24546;52.240;16.826;2022-12-29T20:15:14;13.65;;;8.23;;
38797;SDS011;24546;52.240;16.826;2022-12-29T20:20:18;13.80;;;7.75;;
38797;SDS011;24546;52.240;16.826;2022-12-29T20:25:20;14.55;;;8.27;;
38797;SDS011;24546;52.240;16.826;2022-12-29T20:30:21;13.40;;;8.38;;
38797;SDS011;24546;52.240;16.826;2022-12-29T20:35:25;15.55;;;8.40;;
38797;SDS011;24546;52.240;16.826;2022-12-29T20:40:26;20.15;;;9.93;;
38797;SDS011;24546;52.240;16.826;2022-12-29T20:45:31;18.30;;;9.85;;
38797;SDS011;24546;52.240;16.826;2022-12-29T20:50:32;18.45;;;10.27;;
38797;SDS011;24546;52.240;16.826;2022-12-29T20:55:34;18.92;;;10.93;;
38797;SDS011;24546;52.240;16.826;2022-12-29T21:00:35;23.23;;;12.23;;
38797;SDS011;24546;52.240;16.826;2022-12-29T21:05:36;17.92;;;11.38;;
38797;SDS011;24546;52.240;16.826;2022-12-29T21:10:38;18.13;;;9.75;;
38797;SDS011;24546;52.240;16.826;2022-12-29T21:15:39;15.57;;;9.10;;
38797;SDS011;24546;52.240;16.826;2022-12-29T21:20:40;19.80;;;10.02;;
38797;SDS011;24546;52.240;16.826;2022-12-29T21:25:42;15.95;;;9.18;;
38797;SDS011;24546;52.240;16.826;2022-12-29T21:30:43;18.50;;;8.75;;
38797;SDS011;24546;52.240;16.826;2022-12-29T21:35:46;16.13;;;8.52;;
38797;SDS011;24546;52.240;16.826;2022-12-29T21:40:47;14.35;;;8.15;;
38797;SDS011;24546;52.240;16.826;2022-12-29T21:45:49;12.90;;;8.00;;
38797;SDS011;24546;52.240;16.826;2022-12-29T21:50:53;16.45;;;8.38;;
38797;SDS011;24546;52.240;16.826;2022-12-29T21:56:18;13.93;;;7.97;;
38797;SDS011;24546;52.240;16.826;2022-12-29T22:01:20;13.40;;;7.50;;
38797;SDS011;24546;52.240;16.826;2022-12-29T22:06:41;11.65;;;7.20;;
38797;SDS011;24546;52.240;16.826;2022-12-29T22:12:00;11.80;;;7.82;;
38797;SDS011;24546;52.240;16.826;2022-12-29T22:17:20;13.20;;;8.15;;
38797;SDS011;24546;52.240;16.826;2022-12-29T22:22:21;14.10;;;8.38;;
38797;SDS011;24546;52.240;16.826;2022-12-29T22:27:22;11.40;;;7.63;;
38797;SDS011;24546;52.240;16.826;2022-12-29T22:32:23;12.25;;;7.05;;
38797;SDS011;24546;52.240;16.826;2022-12-29T22:37:24;13.07;;;7.22;;
38797;SDS011;24546;52.240;16.826;2022-12-29T22:42:25;11.63;;;7.25;;
38797;SDS011;24546;52.240;16.826;2022-12-29T22:47:26;11.93;;;6.85;;
38797;SDS011;24546;52.240;16.826;2022-12-29T22:52:27;10.15;;;7.35;;
38797;SDS011;24546;52.240;16.826;2022-12-29T22:57:29;11.77;;;7.05;;
38797;SDS011;24546;52.240;16.826;2022-12-29T23:02:30;12.30;;;6.93;;
38797;SDS011;24546;52.240;16.826;2022-12-29T23:07:32;10.25;;;6.95;;
38797;SDS011;24546;52.240;16.826;2022-12-29T23:12:34;11.95;;;6.97;;
38797;SDS011;24546;52.240;16.826;2022-12-29T23:17:35;10.45;;;7.65;;
38797;SDS011;24546;52.240;16.826;2022-12-29T23:22:36;11.50;;;6.68;;
38797;SDS011;24546;52.240;16.826;2022-12-29T23:27:37;10.27;;;7.20;;
38797;SDS011;24546;52.240;16.826;2022-12-29T23:32:38;11.38;;;6.43;;
38797;SDS011;24546;52.240;16.826;2022-12-29T23:37:39;11.43;;;6.43;;
38797;SDS011;24546;52.240;16.826;2022-12-29T23:42:40;10.07;;;5.97;;
38797;SDS011;24546;52.240;16.826;2022-12-29T23:47:41;11.02;;;6.55;;
38797;SDS011;24546;52.240;16.826;2022-12-29T23:52:42;10.73;;;5.57;;
38797;SDS011;24546;52.240;16.826;2022-12-29T23:57:43;10.73;;;5.53;;
